Time;durP1;ratioP1;P1;durP2;ratioP2;P2;SDS_P1;SDS_P2;PMS_P1;PMS_P2;Temp;Humidity;BMP_temperature;BMP_pressure;BME280_temperature;BME280_humidity;BME280_pressure;Samples;Min_cycle;Max_cycle;Signal;HPM_P1;HPM_P2
2022/09/13 00:02:02;;;;;;;3.85;2.20;;;;;;;14.56;100.00;100170.19;5187732;28;20332;-74
2022/09/13 00:04:33;;;;;;;6.22;2.45;;;;;;;14.59;100.00;100175.28;5186612;28;20275;-73
2022/09/13 00:07:03;;;;;;;6.38;2.30;;;;;;;14.55;100.00;100173.75;5188684;28;20040;-73
2022/09/13 00:09:33;;;;;;;4.72;2.17;;;;;;;14.54;100.00;100166.78;5190031;28;20029;-73
2022/09/13 00:12:04;;;;;;;4.10;2.17;;;;;;;14.68;100.00;100172.97;5194585;28;20095;-73
2022/09/13 00:14:34;;;;;;;4.55;2.45;;;;;;;14.70;100.00;100163.19;5192629;28;20436;-74
2022/09/13 00:17:04;;;;;;;3.60;2.05;;;;;;;14.66;100.00;100164.31;5188652;28;20112;-73
2022/09/13 00:19:34;;;;;;;3.72;2.13;;;;;;;14.84;100.00;100150.91;5176508;28;20029;-73
2022/09/13 00:22:05;;;;;;;3.55;2.00;;;;;;;14.76;100.00;100149.66;5193591;28;20022;-74
2022/09/13 00:24:36;;;;;;;4.45;2.30;;;;;;;14.71;100.00;100145.59;5196295;28;20026;-73
2022/09/13 00:27:06;;;;;;;4.53;2.15;;;;;;;14.77;100.00;100153.16;5190452;28;20034;-73
2022/09/13 00:29:36;;;;;;;3.13;2.00;;;;;;;14.74;100.00;100154.16;5191174;28;20431;-73
2022/09/13 00:32:07;;;;;;;4.30;2.20;;;;;;;14.71;100.00;100159.63;5191744;28;20091;-73
2022/09/13 00:34:37;;;;;;;3.88;2.08;;;;;;;14.58;100.00;100152.53;5190917;28;20184;-73
2022/09/13 00:37:07;;;;;;;4.90;2.05;;;;;;;14.57;100.00;100156.13;5190066;28;20041;-73
2022/09/13 00:39:38;;;;;;;3.60;2.20;;;;;;;14.49;100.00;100139.91;5190282;28;20033;-73
2022/09/13 00:42:11;;;;;;;5.07;2.25;;;;;;;14.49;100.00;100132.03;5193320;28;20029;-73
2022/09/13 00:45:11;;;;;;;4.32;2.00;;;;;;;14.57;100.00;100132.44;5189265;28;20076;-73
2022/09/13 00:47:50;;;;;;;2.95;2.05;;;;;;;14.49;100.00;100134.66;5178435;28;20041;-73
2022/09/13 00:50:41;;;;;;;4.72;2.15;;;;;;;14.41;100.00;100129.00;5191137;28;20130;-73
2022/09/13 00:53:35;;;;;;;3.08;2.10;;;;;;;14.37;100.00;100130.09;5188198;28;20034;-72
2022/09/13 00:56:10;;;;;;;3.58;2.30;;;;;;;14.43;100.00;100127.13;5179122;28;20241;-73
2022/09/13 00:59:11;;;;;;;3.53;2.10;;;;;;;14.43;100.00;100135.84;5189489;28;20115;-73
2022/09/13 01:01:54;;;;;;;4.10;2.42;;;;;;;14.42;100.00;100125.44;5188129;28;20061;-72
2022/09/13 01:04:27;;;;;;;4.40;2.22;;;;;;;14.45;100.00;100123.47;5187726;28;20030;-73
2022/09/13 01:07:01;;;;;;;3.85;2.25;;;;;;;14.46;100.00;100122.53;5182462;28;20092;-73
2022/09/13 01:09:35;;;;;;;4.80;2.67;;;;;;;14.39;100.00;100121.19;5184805;28;20053;-73
2022/09/13 01:12:22;;;;;;;3.58;2.33;;;;;;;14.36;100.00;100120.53;5192898;28;20030;-73
2022/09/13 01:14:56;;;;;;;4.18;2.00;;;;;;;14.33;100.00;100132.09;5172515;28;20018;-73
2022/09/13 01:17:29;;;;;;;4.38;2.33;;;;;;;14.30;100.00;100115.63;5183869;28;20038;-73
2022/09/13 01:20:01;;;;;;;5.35;2.10;;;;;;;14.25;100.00;100108.00;5191489;28;20406;-73
2022/09/13 01:22:44;;;;;;;5.03;2.22;;;;;;;14.34;100.00;100102.22;5172189;28;20318;-73
2022/09/13 01:25:20;;;;;;;4.97;2.20;;;;;;;14.38;100.00;100085.34;5212992;23;20424;-78
2022/09/13 01:28:02;;;;;;;3.35;2.17;;;;;;;14.28;100.00;100083.34;5170675;28;20030;-78
2022/09/13 01:30:41;;;;;;;5.70;2.50;;;;;;;14.24;100.00;100079.19;5169891;28;20037;-78
2022/09/13 01:33:27;;;;;;;3.85;2.40;;;;;;;14.31;100.00;100076.13;5192018;28;20399;-78
2022/09/13 01:36:12;;;;;;;3.05;2.17;;;;;;;14.32;100.00;100071.69;5168148;28;20053;-78
2022/09/13 01:39:05;;;;;;;3.38;2.25;;;;;;;14.29;100.00;100067.47;5190433;28;20029;-75
2022/09/13 01:42:04;;;;;;;4.85;2.60;;;;;;;14.36;100.00;100063.56;5190095;28;20537;-78
2022/09/13 01:45:09;;;;;;;5.70;2.65;;;;;;;14.27;100.00;100058.00;5186177;28;20037;-78
2022/09/13 01:47:56;;;;;;;3.47;2.20;;;;;;;14.29;100.00;100050.84;5174291;28;20045;-78
2022/09/13 01:50:33;;;;;;;4.88;2.50;;;;;;;14.16;100.00;100047.25;5167291;28;20026;-78
2022/09/13 01:53:16;;;;;;;3.83;2.38;;;;;;;14.20;100.00;100048.75;5192420;28;20033;-78
2022/09/13 01:55:53;;;;;;;9.35;2.65;;;;;;;14.08;100.00;100041.56;5191198;28;20025;-78
2022/09/13 01:58:36;;;;;;;5.82;2.70;;;;;;;14.04;100.00;100037.41;5191845;28;20467;-78
2022/09/13 02:01:16;;;;;;;4.63;2.50;;;;;;;14.12;100.00;100038.66;5189525;28;20025;-78
2022/09/13 02:04:09;;;;;;;3.70;2.40;;;;;;;14.12;100.00;100027.31;5191607;28;20025;-78
2022/09/13 02:06:45;;;;;;;4.50;2.72;;;;;;;13.98;100.00;100025.50;5187611;28;20710;-78
2022/09/13 02:09:23;;;;;;;3.88;2.53;;;;;;;14.08;100.00;100026.63;5173152;28;20061;-77
2022/09/13 02:12:02;;;;;;;8.43;2.70;;;;;;;14.06;100.00;100023.25;5193778;28;20095;-78
2022/09/13 02:14:39;;;;;;;5.35;2.72;;;;;;;14.10;100.00;100023.94;5185363;28;20068;-78
2022/09/13 02:17:15;;;;;;;4.28;2.50;;;;;;;14.09;100.00;100022.25;5190158;28;20079;-77
2022/09/13 02:19:57;;;;;;;3.47;2.22;;;;;;;14.23;100.00;100032.81;5190502;28;20030;-76
2022/09/13 02:22:35;;;;;;;5.53;2.80;;;;;;;14.28;100.00;100028.13;5185365;28;20033;-78
2022/09/13 02:25:11;;;;;;;4.75;2.90;;;;;;;14.27;100.00;100011.50;5191790;28;20032;-78
2022/09/13 02:27:46;;;;;;;3.85;2.45;;;;;;;14.27;100.00;100016.75;5188930;28;20052;-78
2022/09/13 02:30:18;;;;;;;5.93;2.40;;;;;;;14.34;100.00;100012.84;5190299;28;20469;-77
2022/09/13 02:33:15;;;;;;;5.05;2.70;;;;;;;14.28;100.00;100009.72;5191315;28;20525;-78
2022/09/13 02:35:54;;;;;;;4.75;2.83;;;;;;;14.40;100.00;100006.38;5190412;28;20119;-77
2022/09/13 02:38:30;;;;;;;7.25;2.50;;;;;;;14.37;100.00;100011.78;5168542;28;20022;-75
2022/09/13 02:41:05;;;;;;;;;;;;;;;14.35;100.00;100009.28;5184540;28;20518;-75
2022/09/13 02:43:41;;;;;;;5.85;2.55;;;;;;;14.39;100.00;100018.66;5196271;28;20008;-75
2022/09/13 02:46:36;;;;;;;4.30;2.33;;;;;;;14.42;100.00;100021.09;5171077;28;20022;-73
2022/09/13 02:49:13;;;;;;;4.20;2.63;;;;;;;14.50;100.00;100012.75;5185868;28;20038;-76
2022/09/13 02:52:02;;;;;;;6.22;2.38;;;;;;;14.47;100.00;100005.06;5188697;28;20502;-75
2022/09/13 02:54:42;;;;;;;5.07;2.92;;;;;;;14.54;100.00;100009.00;5186112;28;20029;-75
2022/09/13 02:57:25;;;;;;;3.00;2.38;;;;;;;14.46;100.00;100016.53;5188549;28;20033;-75
2022/09/13 02:59:56;;;;;;;4.13;2.47;;;;;;;14.62;100.00;100017.28;5183059;28;20033;-76
2022/09/13 03:02:31;;;;;;;4.35;2.85;;;;;;;14.72;100.00;100013.13;5188935;28;20021;-75
2022/09/13 03:05:02;;;;;;;3.47;2.38;;;;;;;14.73;100.00;100018.31;5190326;28;20027;-75
2022/09/13 03:07:32;;;;;;;4.95;2.20;;;;;;;14.77;100.00;100017.19;5186621;28;20105;-75
2022/09/13 03:10:10;;;;;;;3.88;2.70;;;;;;;14.77;100.00;100017.19;5190455;28;20029;-76
2022/09/13 03:13:08;;;;;;;5.45;2.63;;;;;;;14.85;100.00;100018.41;5186967;28;20052;-75
2022/09/13 03:16:09;;;;;;;5.68;2.40;;;;;;;14.87;100.00;100029.69;5189309;28;20108;-75
2022/09/13 03:18:52;;;;;;;3.25;2.15;;;;;;;15.00;100.00;100038.50;5185027;28;20491;-76
2022/09/13 03:21:34;;;;;;;5.97;2.47;;;;;;;15.05;100.00;100041.69;5187386;28;20026;-76
2022/09/13 03:24:32;;;;;;;4.75;2.80;;;;;;;15.08;100.00;100038.03;5167768;28;20029;-76
2022/09/13 03:27:20;;;;;;;4.03;2.53;;;;;;;15.16;100.00;100033.97;5179714;28;20422;-76
2022/09/13 03:30:05;;;;;;;4.00;2.50;;;;;;;15.26;100.00;100036.88;5190355;28;20033;-75
2022/09/13 03:32:56;;;;;;;4.35;2.78;;;;;;;15.37;100.00;100034.47;5185847;28;20636;-75
2022/09/13 03:36:01;;;;;;;5.30;2.72;;;;;;;15.24;100.00;100041.41;5167523;28;20098;-75
2022/09/13 03:38:38;;;;;;;4.88;2.85;;;;;;;15.25;100.00;100043.94;5150334;28;20120;-77
2022/09/13 03:41:17;;;;;;;5.38;2.80;;;;;;;15.26;100.00;100043.00;5191004;28;20018;-76
2022/09/13 03:43:52;;;;;;;4.38;3.03;;;;;;;15.29;100.00;100057.78;5186324;28;20021;-77
2022/09/13 03:46:32;;;;;;;9.43;3.83;;;;;;;15.32;100.00;100057.63;5189456;28;20030;-76
2022/09/13 03:49:09;;;;;;;5.68;3.50;;;;;;;15.18;100.00;100066.31;5170197;28;20340;-79
2022/09/13 03:51:41;;;;;;;5.55;3.13;;;;;;;15.27;100.00;100065.75;5195848;28;20033;-79
2022/09/13 03:54:24;;;;;;;6.00;3.53;;;;;;;15.32;100.00;100074.25;5197817;28;20495;-79
2022/09/13 03:57:11;;;;;;;7.00;3.88;;;;;;;15.30;100.00;100059.47;5169547;28;20543;-79
2022/09/13 03:59:45;;;;;;;7.05;3.78;;;;;;;15.29;100.00;100063.91;5175407;28;20407;-80
2022/09/13 04:02:17;;;;;;;6.82;3.97;;;;;;;15.39;100.00;100049.19;5192848;28;20041;-80
2022/09/13 04:04:47;;;;;;;6.55;4.30;;;;;;;15.27;100.00;100046.47;5194746;28;20547;-81
2022/09/13 04:07:20;;;;;;;7.32;4.20;;;;;;;15.31;100.00;100051.50;5192372;28;20172;-80
2022/09/13 04:09:50;;;;;;;7.70;4.18;;;;;;;15.04;100.00;100042.63;5194649;28;20513;-79
2022/09/13 04:12:21;;;;;;;8.40;4.53;;;;;;;14.99;100.00;100047.34;5195567;28;20110;-79
2022/09/13 04:14:51;;;;;;;9.32;4.35;;;;;;;14.96;100.00;100050.16;5194428;28;20022;-79
2022/09/13 04:17:21;;;;;;;8.80;4.30;;;;;;;14.87;100.00;100027.03;5191323;28;20042;-80
2022/09/13 04:19:52;;;;;;;10.13;4.38;;;;;;;14.81;100.00;100028.38;5182768;28;20038;-80
2022/09/13 04:22:22;;;;;;;8.00;3.97;;;;;;;14.93;100.00;100025.81;5195114;28;20139;-80
2022/09/13 04:24:52;;;;;;;10.45;4.43;;;;;;;14.74;100.00;100030.53;5191765;28;20026;-79
2022/09/13 04:27:22;;;;;;;7.60;4.18;;;;;;;14.70;100.00;100020.28;5194176;28;20112;-79
2022/09/13 04:29:53;;;;;;;9.75;4.70;;;;;;;14.60;100.00;100025.25;5193428;28;20641;-79
2022/09/13 04:32:23;;;;;;;7.25;4.70;;;;;;;14.53;100.00;100023.09;5192131;28;20029;-79
2022/09/13 04:34:54;;;;;;;7.18;4.68;;;;;;;14.57;100.00;100019.34;5188577;28;20036;-80
2022/09/13 04:37:25;;;;;;;6.57;4.25;;;;;;;14.69;100.00;100022.09;5182393;28;20046;-80
2022/09/13 04:39:56;;;;;;;7.57;4.32;;;;;;;14.72;100.00;100018.41;5193315;28;20026;-79
2022/09/13 04:42:26;;;;;;;7.88;4.35;;;;;;;14.66;100.00;100018.78;5164455;28;20049;-80
2022/09/13 04:44:56;;;;;;;7.85;4.82;;;;;;;14.87;100.00;100011.25;5188876;28;20108;-79
2022/09/13 04:47:26;;;;;;;8.20;4.85;;;;;;;14.88;100.00;100005.06;5184723;28;20040;-79
2022/09/13 04:49:57;;;;;;;11.52;5.65;;;;;;;14.94;100.00;99994.16;5189019;28;20025;-79
2022/09/13 04:52:27;;;;;;;9.73;5.63;;;;;;;14.95;100.00;99993.22;5188309;28;20045;-80
2022/09/13 04:55:00;;;;;;;9.20;6.13;;;;;;;15.03;100.00;99998.84;5193545;28;20025;-80
2022/09/13 04:57:30;;;;;;;9.85;6.10;;;;;;;15.11;100.00;99996.59;5193777;28;20034;-79
2022/09/13 05:00:01;;;;;;;8.60;5.80;;;;;;;15.15;100.00;99992.81;5199589;28;20030;-80
2022/09/13 05:02:32;;;;;;;9.07;5.45;;;;;;;15.20;100.00;99982.81;5195942;28;20079;-80
2022/09/13 05:05:02;;;;;;;9.48;5.53;;;;;;;15.17;100.00;99990.09;5198966;28;20021;-80
2022/09/13 05:07:33;;;;;;;9.15;5.57;;;;;;;15.16;100.00;99989.22;5193364;28;20026;-80
2022/09/13 05:10:03;;;;;;;9.68;5.07;;;;;;;15.30;100.00;99983.09;5180013;28;20026;-80
2022/09/13 05:12:34;;;;;;;7.75;4.90;;;;;;;15.30;100.00;99983.97;5174650;28;20021;-80
2022/09/13 05:15:05;;;;;;;8.00;4.90;;;;;;;15.36;100.00;99985.38;5196602;28;20297;-80
2022/09/13 05:17:36;;;;;;;8.13;5.57;;;;;;;15.36;100.00;99977.47;5174959;28;20035;-80
2022/09/13 05:20:07;;;;;;;8.63;5.47;;;;;;;15.28;100.00;99988.47;5194877;28;20030;-79
2022/09/13 05:22:37;;;;;;;9.52;5.60;;;;;;;15.36;100.00;99991.47;5174053;28;20032;-77
2022/09/13 05:25:07;;;;;;;10.20;5.93;;;;;;;15.38;100.00;99984.31;5188594;28;20399;-77
2022/09/13 05:27:38;;;;;;;8.75;5.72;;;;;;;15.41;100.00;99984.13;5189639;28;20034;-77
2022/09/13 05:30:09;;;;;;;10.23;6.05;;;;;;;15.42;100.00;99987.59;5180207;28;20105;-77
2022/09/13 05:32:39;;;;;;;12.10;6.60;;;;;;;15.42;100.00;99985.81;5168872;28;20029;-77
2022/09/13 05:35:09;;;;;;;7.45;5.53;;;;;;;15.57;100.00;99997.16;5184280;28;20045;-77
2022/09/13 05:37:39;;;;;;;11.30;6.45;;;;;;;15.56;100.00;99998.91;5187053;28;20026;-77
2022/09/13 05:40:10;;;;;;;9.38;5.88;;;;;;;15.64;100.00;100003.69;5189185;28;20040;-75
2022/09/13 05:42:40;;;;;;;7.78;5.80;;;;;;;15.69;100.00;99989.28;5186149;28;20164;-77
2022/09/13 05:45:10;;;;;;;10.07;6.40;;;;;;;15.65;100.00;99998.34;5190708;28;20087;-76
2022/09/13 05:47:41;;;;;;;9.52;6.05;;;;;;;15.64;100.00;99994.00;5189672;28;20067;-78
2022/09/13 05:50:11;;;;;;;9.45;5.90;;;;;;;15.70;100.00;99990.97;5190288;28;20504;-76
2022/09/13 05:52:41;;;;;;;8.73;6.50;;;;;;;15.77;100.00;99979.09;5190082;28;20107;-77
2022/09/13 05:55:12;;;;;;;8.65;6.00;;;;;;;15.83;100.00;99978.69;5191600;28;20483;-76
2022/09/13 05:57:42;;;;;;;7.90;5.90;;;;;;;15.87;100.00;99984.59;5189771;28;20041;-77
2022/09/13 06:00:13;;;;;;;9.63;5.95;;;;;;;15.96;100.00;99982.19;5189013;28;20033;-77
2022/09/13 06:02:43;;;;;;;9.45;6.25;;;;;;;15.98;100.00;99980.31;5194158;28;20037;-78
2022/09/13 06:05:14;;;;;;;11.40;5.82;;;;;;;15.90;100.00;99979.94;5189515;28;20034;-78
2022/09/13 06:07:44;;;;;;;10.02;6.32;;;;;;;15.92;100.00;99990.41;5188382;28;20611;-78
2022/09/13 06:10:14;;;;;;;8.10;6.18;;;;;;;16.08;100.00;99978.72;5190042;28;20033;-78
2022/09/13 06:12:46;;;;;;;7.78;5.72;;;;;;;16.09;100.00;99976.94;5190805;28;20037;-78
2022/09/13 06:15:16;;;;;;;7.65;5.53;;;;;;;16.13;100.00;99975.78;5192456;28;20057;-78
2022/09/13 06:17:46;;;;;;;7.82;5.32;;;;;;;16.24;100.00;99976.72;5187838;28;20064;-77
2022/09/13 06:20:17;;;;;;;8.43;5.68;;;;;;;16.22;100.00;99968.09;5190399;28;20619;-77
2022/09/13 06:22:47;;;;;;;7.53;5.72;;;;;;;16.10;100.00;99968.94;5187443;28;20506;-78
2022/09/13 06:25:18;;;;;;;7.85;5.25;;;;;;;16.24;100.00;99966.19;5191578;28;20040;-78
2022/09/13 06:27:48;;;;;;;8.55;6.20;;;;;;;16.19;100.00;99973.56;5189768;28;20037;-77
2022/09/13 06:30:18;;;;;;;7.15;6.00;;;;;;;16.37;100.00;99972.34;5170620;28;20312;-78
2022/09/13 06:32:48;;;;;;;8.18;5.82;;;;;;;16.31;100.00;99971.88;5189161;28;20021;-78
2022/09/13 06:35:19;;;;;;;8.90;5.70;;;;;;;16.31;100.00;99966.63;5188319;28;20021;-77
2022/09/13 06:37:49;;;;;;;10.05;5.85;;;;;;;16.33;100.00;99970.84;5181504;28;20022;-77
2022/09/13 06:40:21;;;;;;;10.32;6.20;;;;;;;16.35;100.00;99968.16;5169154;28;20040;-77
2022/09/13 06:42:52;;;;;;;8.13;5.78;;;;;;;16.38;100.00;99971.41;5189677;28;20072;-78
2022/09/13 06:45:22;;;;;;;8.50;6.20;;;;;;;16.40;100.00;99976.56;5190447;28;20501;-77
2022/09/13 06:47:54;;;;;;;7.28;5.68;;;;;;;16.44;100.00;99976.28;5186408;28;20404;-77
2022/09/13 06:50:25;;;;;;;7.70;6.05;;;;;;;16.42;100.00;99975.50;5165097;28;20068;-77
2022/09/13 06:52:55;;;;;;;8.30;5.95;;;;;;;16.46;100.00;99971.72;5189299;28;20033;-77
2022/09/13 06:55:26;;;;;;;9.57;6.38;;;;;;;16.55;100.00;99972.88;5181836;28;20036;-77
2022/09/13 06:57:57;;;;;;;7.60;5.90;;;;;;;16.52;100.00;99966.03;5180891;28;20026;-77
2022/09/13 07:00:28;;;;;;;9.23;6.45;;;;;;;16.51;100.00;99968.75;5190466;28;20025;-77
2022/09/13 07:02:58;;;;;;;8.77;6.45;;;;;;;16.53;100.00;99959.78;5188834;28;20405;-77
2022/09/13 07:05:28;;;;;;;12.40;6.82;;;;;;;16.60;100.00;99963.72;5187031;28;20034;-78
2022/09/13 07:07:58;;;;;;;8.15;6.18;;;;;;;16.77;100.00;99963.38;5189015;28;20060;-77
2022/09/13 07:10:29;;;;;;;8.33;6.00;;;;;;;16.91;100.00;99964.06;5188309;28;21166;-78
2022/09/13 07:12:59;;;;;;;8.02;6.00;;;;;;;17.12;100.00;99970.47;5184636;28;20291;-78
2022/09/13 07:15:29;;;;;;;8.93;5.57;;;;;;;17.16;100.00;99957.88;5184750;28;20043;-78
2022/09/13 07:17:59;;;;;;;8.75;5.85;;;;;;;17.28;100.00;99959.66;5186449;28;20431;-78
2022/09/13 07:20:30;;;;;;;11.90;6.28;;;;;;;17.36;100.00;99959.94;5189875;28;20033;-78
2022/09/13 07:23:00;;;;;;;7.60;5.15;;;;;;;17.33;100.00;99962.78;5167056;28;20033;-78
2022/09/13 07:25:30;;;;;;;8.85;5.60;;;;;;;17.34;100.00;99961.88;5199834;23;20014;-74
2022/09/13 07:28:01;;;;;;;8.70;5.93;;;;;;;17.41;100.00;99971.00;5180202;28;20038;-73
2022/09/13 07:30:32;;;;;;;7.45;5.55;;;;;;;17.63;100.00;99971.97;5186116;28;20043;-74
2022/09/13 07:33:02;;;;;;;7.40;5.03;;;;;;;17.70;100.00;99975.88;5186664;28;20472;-75
2022/09/13 07:35:33;;;;;;;6.72;5.45;;;;;;;17.80;100.00;99981.31;5187382;28;20125;-73
2022/09/13 07:38:03;;;;;;;7.47;5.18;;;;;;;17.91;100.00;99981.34;5179650;28;20056;-77
2022/09/13 07:40:35;;;;;;;7.55;5.47;;;;;;;17.98;100.00;99977.28;5178383;28;20121;-76
2022/09/13 07:43:05;;;;;;;7.35;5.70;;;;;;;18.55;100.00;99976.34;5171243;28;20030;-77
2022/09/13 07:45:36;;;;;;;7.57;5.05;;;;;;;18.67;100.00;99970.09;5198662;28;20028;-76
2022/09/13 07:48:06;;;;;;;7.70;4.72;;;;;;;18.58;100.00;99970.84;5197274;28;20124;-72
2022/09/13 07:50:36;;;;;;;7.85;5.05;;;;;;;18.53;100.00;99974.81;5198580;28;20490;-73
2022/09/13 07:53:06;;;;;;;7.05;5.28;;;;;;;18.33;100.00;99971.03;5198443;28;20037;-73
2022/09/13 07:55:37;;;;;;;6.85;4.70;;;;;;;18.29;100.00;99968.72;5193643;28;20068;-73
2022/09/13 07:58:07;;;;;;;6.22;4.47;;;;;;;18.30;100.00;99965.13;5171241;28;20057;-72
2022/09/13 08:00:37;;;;;;;6.78;4.78;;;;;;;18.16;100.00;99978.56;5198870;28;20029;-73
2022/09/13 08:03:10;;;;;;;6.50;4.78;;;;;;;18.36;100.00;99968.16;5178499;28;20025;-73
2022/09/13 08:05:40;;;;;;;5.80;4.22;;;;;;;18.40;100.00;99976.69;5198891;28;20105;-75
2022/09/13 08:08:11;;;;;;;5.78;4.18;;;;;;;18.63;100.00;99983.69;5195864;28;20493;-73
2022/09/13 08:10:41;;;;;;;5.68;4.30;;;;;;;18.96;100.00;99974.78;5178402;28;20029;-73
2022/09/13 08:13:11;;;;;;;5.85;4.15;;;;;;;18.95;100.00;99991.66;5188370;28;20364;-73
2022/09/13 08:15:42;;;;;;;6.82;4.43;;;;;;;18.86;100.00;99992.38;5198950;28;20343;-73
2022/09/13 08:18:13;;;;;;;6.57;4.05;;;;;;;18.84;100.00;100001.41;5196769;28;20025;-74
2022/09/13 08:20:43;;;;;;;8.23;4.40;;;;;;;18.85;100.00;99996.00;5192006;28;20060;-76
2022/09/13 08:23:14;;;;;;;7.30;4.55;;;;;;;18.86;100.00;99991.53;5198301;28;20087;-74
2022/09/13 08:25:44;;;;;;;5.72;4.40;;;;;;;18.80;100.00;99992.84;5188479;28;20529;-73
2022/09/13 08:28:16;;;;;;;8.07;4.65;;;;;;;18.92;100.00;99997.19;5172270;28;20040;-74
2022/09/13 08:30:47;;;;;;;10.50;4.50;;;;;;;18.98;100.00;100002.03;5202150;28;20486;-73
2022/09/13 08:33:17;;;;;;;6.80;4.60;;;;;;;19.29;100.00;99990.69;5198089;28;20224;-74
2022/09/13 08:35:52;;;;;;;6.78;4.32;;;;;;;19.26;100.00;100003.34;5200864;28;20021;-74
2022/09/13 08:38:22;;;;;;;7.95;4.65;;;;;;;19.51;100.00;100006.56;5198958;28;20030;-74
2022/09/13 08:40:58;;;;;;;8.52;4.72;;;;;;;19.48;100.00;100003.31;5196859;28;20044;-74
2022/09/13 08:43:53;;;;;;;7.40;4.30;;;;;;;19.78;100.00;100003.47;5189585;28;20195;-74
2022/09/13 08:46:27;;;;;;;7.15;3.75;;;;;;;19.80;100.00;99990.91;5200594;28;20398;-76
2022/09/13 08:49:03;;;;;;;6.45;4.10;;;;;;;19.83;100.00;99996.81;5184391;28;20088;-75
2022/09/13 08:51:47;;;;;;;6.72;4.30;;;;;;;19.64;100.00;99993.97;5191573;28;20033;-74
2022/09/13 08:54:19;;;;;;;5.25;4.18;;;;;;;19.89;100.00;99985.69;5183662;28;20037;-73
2022/09/13 08:57:08;;;;;;;5.82;4.40;;;;;;;20.10;100.00;99989.22;5190087;28;20041;-74
2022/09/13 08:59:46;;;;;;;5.13;3.83;;;;;;;20.08;100.00;99991.16;5198628;28;20025;-74
2022/09/13 09:02:39;;;;;;;7.80;4.47;;;;;;;19.80;100.00;100001.53;5198950;28;20045;-73
2022/09/13 09:05:14;;;;;;;7.32;4.38;;;;;;;19.71;100.00;100008.41;5188493;28;20041;-77
2022/09/13 09:07:52;;;;;;;6.85;4.50;;;;;;;19.79;100.00;99998.00;5200015;28;20040;-73
2022/09/13 09:10:31;;;;;;;6.20;4.55;;;;;;;19.83;97.88;99996.81;5198435;28;20029;-73
2022/09/13 09:13:06;;;;;;;5.93;4.28;;;;;;;19.67;100.00;99995.53;5188129;28;20033;-75
2022/09/13 09:15:44;;;;;;;7.28;4.50;;;;;;;19.74;100.00;99997.56;5200971;28;20028;-76
2022/09/13 09:18:44;;;;;;;10.60;4.60;;;;;;;19.87;100.00;99992.94;5199192;28;20021;-76
2022/09/13 09:21:17;;;;;;;6.35;4.32;;;;;;;19.90;100.00;99995.31;5177600;28;20037;-76
2022/09/13 09:23:50;;;;;;;6.13;4.13;;;;;;;19.93;100.00;99992.41;5200899;28;20560;-77
2022/09/13 09:26:30;;;;;;;7.60;4.13;;;;;;;20.21;100.00;99983.88;5191549;28;20029;-77
2022/09/13 09:29:05;;;;;;;8.30;4.10;;;;;;;20.50;100.00;99976.91;5191948;28;20040;-76
2022/09/13 09:31:48;;;;;;;7.15;4.10;;;;;;;20.93;94.90;99980.25;5198599;28;20060;-76
2022/09/13 09:34:41;;;;;;;5.55;3.67;;;;;;;20.89;94.76;99997.44;5179662;28;20029;-78
2022/09/13 09:37:24;;;;;;;11.38;4.35;;;;;;;20.62;94.54;99983.84;5186169;28;20065;-79
2022/09/13 09:40:01;;;;;;;8.10;4.18;;;;;;;20.81;95.81;99992.75;5195119;28;20079;-78
2022/09/13 09:42:40;;;;;;;6.38;4.32;;;;;;;21.40;93.27;99995.50;5184075;28;20355;-77
2022/09/13 09:45:25;;;;;;;7.63;4.55;;;;;;;21.67;90.63;99983.25;5198446;28;20025;-77
2022/09/13 09:48:00;;;;;;;6.78;4.55;;;;;;;21.94;88.31;99988.72;5199541;28;20116;-77
2022/09/13 09:50:37;;;;;;;7.22;4.80;;;;;;;21.85;86.56;99989.56;5200445;28;20147;-75
2022/09/13 09:53:30;;;;;;;7.68;4.80;;;;;;;21.40;88.54;99979.56;5200124;28;20108;-78
2022/09/13 09:56:23;;;;;;;8.30;5.03;;;;;;;21.38;87.75;99976.19;5186056;28;20094;-76
2022/09/13 09:58:54;;;;;;;7.70;4.88;;;;;;;21.62;87.59;99979.28;5194318;28;20029;-79
2022/09/13 10:01:27;;;;;;;9.05;4.57;;;;;;;22.05;89.47;99975.28;5197747;28;20096;-76
2022/09/13 10:04:20;;;;;;;9.23;5.18;;;;;;;22.31;86.79;99972.88;5190483;28;20025;-80
2022/09/13 10:07:28;;;;;;;8.38;4.75;;;;;;;22.27;85.33;99979.47;5198679;28;20590;-76
2022/09/13 10:10:04;;;;;;;7.25;4.85;;;;;;;21.71;87.03;99983.84;5177338;28;20136;-78
2022/09/13 10:12:38;;;;;;;8.23;5.28;;;;;;;21.80;87.60;99978.53;5189142;28;20033;-78
2022/09/13 10:15:21;;;;;;;9.77;5.65;;;;;;;21.65;88.15;99987.03;5198138;28;20024;-78
2022/09/13 10:18:02;;;;;;;10.13;5.60;;;;;;;21.59;89.00;99975.09;5180865;28;20537;-76
2022/09/13 10:20:33;;;;;;;9.40;5.50;;;;;;;21.69;89.04;99983.09;5193286;28;20347;-77
2022/09/13 10:23:10;;;;;;;7.32;5.13;;;;;;;21.71;89.48;99982.00;5197931;28;20033;-76
2022/09/13 10:25:42;;;;;;;10.88;6.43;;;;;;;21.71;89.62;99975.84;5193660;28;20034;-76
2022/09/13 10:28:18;;;;;;;9.73;5.85;;;;;;;21.73;89.01;99977.38;5187209;28;20026;-77
2022/09/13 10:30:55;;;;;;;9.38;6.53;;;;;;;21.44;88.56;99975.63;5184612;28;20036;-77
2022/09/13 10:33:31;;;;;;;11.20;5.90;;;;;;;21.41;91.15;99966.09;5188669;28;20029;-77
2022/09/13 10:36:11;;;;;;;11.00;6.60;;;;;;;21.82;87.15;99970.38;5174299;28;20071;-75
2022/09/13 10:38:53;;;;;;;9.93;6.38;;;;;;;21.94;88.16;99975.41;5196913;28;20487;-77
2022/09/13 10:41:27;;;;;;;10.23;6.95;;;;;;;21.84;87.19;99979.06;5192476;28;20430;-79
2022/09/13 10:44:03;;;;;;;9.88;5.90;;;;;;;22.08;89.63;99969.66;5188803;28;20033;-76
2022/09/13 10:46:36;;;;;;;9.07;6.07;;;;;;;22.11;88.82;99969.38;5198083;28;20383;-78
2022/09/13 10:49:43;;;;;;;10.95;6.43;;;;;;;22.06;86.97;99968.16;5176857;28;20042;-79
2022/09/13 10:52:30;;;;;;;9.35;6.03;;;;;;;21.88;88.02;99969.84;5194704;28;20272;-78
2022/09/13 10:55:18;;;;;;;11.23;6.15;;;;;;;21.40;91.05;99971.56;5189158;28;20026;-77
2022/09/13 10:57:51;;;;;;;10.32;5.80;;;;;;;21.39;92.13;99968.06;5186192;28;20025;-76
2022/09/13 11:00:43;;;;;;;7.68;4.72;;;;;;;21.54;93.28;99969.34;5198408;28;20459;-76
2022/09/13 11:03:25;;;;;;;8.40;5.10;;;;;;;21.18;92.29;99969.13;5188574;28;20037;-77
2022/09/13 11:06:20;;;;;;;8.70;4.70;;;;;;;21.47;93.84;99962.91;5183501;28;20017;-77
2022/09/13 11:09:05;;;;;;;9.93;4.60;;;;;;;21.86;93.22;99963.78;5172751;28;20126;-79
2022/09/13 11:12:31;;;;;;;10.13;5.03;;;;;;;21.59;92.07;99976.91;5179682;28;20284;-77
2022/09/13 11:15:34;;;;;;;7.55;4.20;;;;;;;21.66;91.50;99973.59;5092413;29;20027;-77
2022/09/13 11:18:10;;;;;;;8.50;4.80;;;;;;;21.37;91.57;99969.19;5190608;28;20059;-77
2022/09/13 11:21:24;;;;;;;8.20;4.40;;;;;;;21.31;92.88;99972.38;5198321;28;20100;-77
2022/09/13 11:24:23;;;;;;;6.05;4.10;;;;;;;21.50;93.15;99967.94;5150933;28;20466;-77
2022/09/13 11:27:32;;;;;;;6.45;4.45;;;;;;;21.38;92.85;99974.34;5188623;28;20506;-76
2022/09/13 11:30:15;;;;;;;7.03;4.43;;;;;;;21.16;95.68;99963.09;5194472;28;20128;-78
2022/09/13 11:32:55;;;;;;;5.95;3.80;;;;;;;21.32;95.45;99971.41;5199044;28;20026;-79
2022/09/13 11:35:52;;;;;;;8.68;4.28;;;;;;;21.31;95.47;99961.75;5191086;28;20056;-77
2022/09/13 11:38:40;;;;;;;13.57;4.13;;;;;;;21.19;95.85;99965.47;5196927;28;20036;-77
2022/09/13 11:41:35;;;;;;;10.80;4.43;;;;;;;21.39;93.87;99962.75;5190476;28;20101;-76
2022/09/13 11:44:33;;;;;;;8.10;4.20;;;;;;;21.13;94.15;99958.06;5189153;28;20159;-77
2022/09/13 11:47:29;;;;;;;6.63;3.75;;;;;;;21.16;95.67;99966.63;5173607;28;20025;-77
2022/09/13 11:50:08;;;;;;;8.27;4.70;;;;;;;21.23;96.12;99961.59;5191507;28;20036;-77
2022/09/13 11:53:16;;;;;;;7.68;4.93;;;;;;;21.24;94.45;99966.75;5196308;28;20303;-77
2022/09/13 11:55:50;;;;;;;7.55;4.85;;;;;;;21.11;96.14;99962.69;5186024;28;20022;-75
2022/09/13 11:58:29;;;;;;;7.18;4.47;;;;;;;21.22;96.59;99949.28;5186367;28;20026;-76
2022/09/13 12:01:04;;;;;;;6.80;4.25;;;;;;;21.36;95.32;99951.53;5193067;28;20064;-77
2022/09/13 12:04:05;;;;;;;5.90;3.85;;;;;;;21.58;97.01;99964.59;5182526;28;20033;-77
2022/09/13 12:06:41;;;;;;;6.55;4.20;;;;;;;21.54;96.39;99958.72;5177828;28;20026;-75
2022/09/13 12:09:18;;;;;;;7.78;4.50;;;;;;;21.64;95.31;99956.09;5190646;28;20053;-75